sensor_id;sensor_type;location;lat;lon;timestamp;temperature;humidity
7844;DHT22;3967;48.702;9.326;2023-04-22T00:01:01;13.80;96.60
7844;DHT22;3967;48.702;9.326;2023-04-22T00:03:28;13.80;96.70
7844;DHT22;3967;48.702;9.326;2023-04-22T00:05:55;13.80;96.80
7844;DHT22;3967;48.702;9.326;2023-04-22T00:08:22;13.80;96.90
7844;DHT22;3967;48.702;9.326;2023-04-22T00:10:48;13.80;97.50
7844;DHT22;3967;48.702;9.326;2023-04-22T00:13:15;13.90;97.40
7844;DHT22;3967;48.702;9.326;2023-04-22T00:15:42;13.90;97.50
7844;DHT22;3967;48.702;9.326;2023-04-22T00:18:09;13.90;97.60
7844;DHT22;3967;48.702;9.326;2023-04-22T00:20:40;13.80;97.50
7844;DHT22;3967;48.702;9.326;2023-04-22T00:23:09;13.80;98.20
7844;DHT22;3967;48.702;9.326;2023-04-22T00:25:38;13.80;98.60
7844;DHT22;3967;48.702;9.326;2023-04-22T00:28:05;13.80;98.40
7844;DHT22;3967;48.702;9.326;2023-04-22T00:30:32;13.80;98.20
7844;DHT22;3967;48.702;9.326;2023-04-22T00:32:58;13.80;98.30
7844;DHT22;3967;48.702;9.326;2023-04-22T00:35:25;13.80;98.20
7844;DHT22;3967;48.702;9.326;2023-04-22T00:37:52;13.90;98.30
7844;DHT22;3967;48.702;9.326;2023-04-22T00:40:19;13.90;98.00
7844;DHT22;3967;48.702;9.326;2023-04-22T00:42:48;13.90;98.20
7844;DHT22;3967;48.702;9.326;2023-04-22T00:45:16;13.80;98.40
7844;DHT22;3967;48.702;9.326;2023-04-22T00:47:45;13.80;98.40
7844;DHT22;3967;48.702;9.326;2023-04-22T00:50:12;13.80;98.30
7844;DHT22;3967;48.702;9.326;2023-04-22T00:52:42;13.80;98.30
7844;DHT22;3967;48.702;9.326;2023-04-22T00:55:09;13.80;98.40
7844;DHT22;3967;48.702;9.326;2023-04-22T00:57:37;13.80;98.30
7844;DHT22;3967;48.702;9.326;2023-04-22T01:00:05;13.80;98.30
7844;DHT22;3967;48.702;9.326;2023-04-22T01:02:32;13.80;98.30
7844;DHT22;3967;48.702;9.326;2023-04-22T01:04:59;13.70;98.30
7844;DHT22;3967;48.702;9.326;2023-04-22T01:07:26;13.70;98.40
7844;DHT22;3967;48.702;9.326;2023-04-22T01:09:54;13.70;98.40
7844;DHT22;3967;48.702;9.326;2023-04-22T01:12:20;13.70;98.70
7844;DHT22;3967;48.702;9.326;2023-04-22T01:14:47;13.70;98.60
7844;DHT22;3967;48.702;9.326;2023-04-22T01:17:15;13.70;98.60
7844;DHT22;3967;48.702;9.326;2023-04-22T01:19:42;13.70;98.50
7844;DHT22;3967;48.702;9.326;2023-04-22T01:22:12;13.70;98.80
7844;DHT22;3967;48.702;9.326;2023-04-22T01:24:39;13.60;98.90
7844;DHT22;3967;48.702;9.326;2023-04-22T01:27:06;13.60;99.00
7844;DHT22;3967;48.702;9.326;2023-04-22T01:29:35;13.60;99.10
7844;DHT22;3967;48.702;9.326;2023-04-22T01:32:04;13.50;99.20
7844;DHT22;3967;48.702;9.326;2023-04-22T01:34:31;13.50;99.40
7844;DHT22;3967;48.702;9.326;2023-04-22T01:36:58;13.50;99.50
7844;DHT22;3967;48.702;9.326;2023-04-22T01:39:25;13.50;99.50
7844;DHT22;3967;48.702;9.326;2023-04-22T01:41:52;13.50;99.50
7844;DHT22;3967;48.702;9.326;2023-04-22T01:44:19;13.50;99.60
7844;DHT22;3967;48.702;9.326;2023-04-22T01:46:46;13.50;99.70
7844;DHT22;3967;48.702;9.326;2023-04-22T01:49:12;13.40;99.70
7844;DHT22;3967;48.702;9.326;2023-04-22T01:51:39;13.30;99.90
7844;DHT22;3967;48.702;9.326;2023-04-22T01:54:08;13.20;99.90
7844;DHT22;3967;48.702;9.326;2023-04-22T01:56:35;13.20;99.90
7844;DHT22;3967;48.702;9.326;2023-04-22T01:59:04;13.10;99.90
7844;DHT22;3967;48.702;9.326;2023-04-22T02:01:30;13.20;99.90
7844;DHT22;3967;48.702;9.326;2023-04-22T02:03:57;13.10;99.90
7844;DHT22;3967;48.702;9.326;2023-04-22T02:06:24;13.10;99.90
7844;DHT22;3967;48.702;9.326;2023-04-22T02:08:51;13.10;99.90
7844;DHT22;3967;48.702;9.326;2023-04-22T02:11:18;13.10;99.90
7844;DHT22;3967;48.702;9.326;2023-04-22T02:13:44;13.00;99.90
7844;DHT22;3967;48.702;9.326;2023-04-22T02:16:11;12.90;99.90
7844;DHT22;3967;48.702;9.326;2023-04-22T02:18:38;13.00;99.90
7844;DHT22;3967;48.702;9.326;2023-04-22T02:21:05;13.00;99.90
7844;DHT22;3967;48.702;9.326;2023-04-22T02:23:31;12.90;99.90
7844;DHT22;3967;48.702;9.326;2023-04-22T02:25:58;12.90;99.90
7844;DHT22;3967;48.702;9.326;2023-04-22T02:28:25;12.90;99.90
7844;DHT22;3967;48.702;9.326;2023-04-22T02:30:52;13.00;99.90
7844;DHT22;3967;48.702;9.326;2023-04-22T02:33:18;13.00;99.90
7844;DHT22;3967;48.702;9.326;2023-04-22T02:35:46;12.90;99.90
7844;DHT22;3967;48.702;9.326;2023-04-22T02:38:12;12.80;99.90
7844;DHT22;3967;48.702;9.326;2023-04-22T02:40:39;12.70;99.90
7844;DHT22;3967;48.702;9.326;2023-04-22T02:43:06;12.60;99.90
7844;DHT22;3967;48.702;9.326;2023-04-22T02:45:33;12.60;99.90
7844;DHT22;3967;48.702;9.326;2023-04-22T02:47:59;12.70;99.90
7844;DHT22;3967;48.702;9.326;2023-04-22T02:50:26;12.70;99.90
7844;DHT22;3967;48.702;9.326;2023-04-22T02:52:53;12.70;99.90
7844;DHT22;3967;48.702;9.326;2023-04-22T02:55:20;12.60;99.90
7844;DHT22;3967;48.702;9.326;2023-04-22T02:57:48;12.50;99.90
7844;DHT22;3967;48.702;9.326;2023-04-22T03:00:14;12.60;99.90
7844;DHT22;3967;48.702;9.326;2023-04-22T03:02:41;12.70;99.90
7844;DHT22;3967;48.702;9.326;2023-04-22T03:05:08;12.70;99.90
7844;DHT22;3967;48.702;9.326;2023-04-22T03:07:36;12.70;99.90
7844;DHT22;3967;48.702;9.326;2023-04-22T03:10:08;12.60;99.90
7844;DHT22;3967;48.702;9.326;2023-04-22T03:12:34;12.60;99.90
7844;DHT22;3967;48.702;9.326;2023-04-22T03:15:01;12.60;99.90
7844;DHT22;3967;48.702;9.326;2023-04-22T03:17:28;12.60;99.90
7844;DHT22;3967;48.702;9.326;2023-04-22T03:19:55;12.50;99.90
7844;DHT22;3967;48.702;9.326;2023-04-22T03:22:21;12.40;99.90
7844;DHT22;3967;48.702;9.326;2023-04-22T03:24:48;12.20;99.90
7844;DHT22;3967;48.702;9.326;2023-04-22T03:27:15;12.10;99.90
7844;DHT22;3967;48.702;9.326;2023-04-22T03:29:42;12.00;99.90
7844;DHT22;3967;48.702;9.326;2023-04-22T03:32:08;12.00;99.90
7844;DHT22;3967;48.702;9.326;2023-04-22T03:34:36;12.00;99.90
7844;DHT22;3967;48.702;9.326;2023-04-22T03:37:03;12.10;99.90
7844;DHT22;3967;48.702;9.326;2023-04-22T03:39:29;12.10;99.90
7844;DHT22;3967;48.702;9.326;2023-04-22T03:41:56;12.20;99.90
7844;DHT22;3967;48.702;9.326;2023-04-22T03:44:23;12.20;99.90
7844;DHT22;3967;48.702;9.326;2023-04-22T03:46:49;12.20;99.90
7844;DHT22;3967;48.702;9.326;2023-04-22T03:49:16;12.10;99.90
7844;DHT22;3967;48.702;9.326;2023-04-22T03:51:44;12.20;99.90
7844;DHT22;3967;48.702;9.326;2023-04-22T03:54:11;12.20;99.90
7844;DHT22;3967;48.702;9.326;2023-04-22T03:56:37;12.10;99.90
7844;DHT22;3967;48.702;9.326;2023-04-22T03:59:04;12.00;99.90
7844;DHT22;3967;48.702;9.326;2023-04-22T04:01:31;11.90;99.90
7844;DHT22;3967;48.702;9.326;2023-04-22T04:03:58;11.90;99.90
7844;DHT22;3967;48.702;9.326;2023-04-22T04:06:25;11.90;99.90
7844;DHT22;3967;48.702;9.326;2023-04-22T04:08:52;11.90;99.90
7844;DHT22;3967;48.702;9.326;2023-04-22T04:11:18;11.90;99.90
7844;DHT22;3967;48.702;9.326;2023-04-22T04:13:48;12.00;99.90
7844;DHT22;3967;48.702;9.326;2023-04-22T04:16:18;12.00;99.90
7844;DHT22;3967;48.702;9.326;2023-04-22T04:18:45;12.10;99.90
7844;DHT22;3967;48.702;9.326;2023-04-22T04:21:11;12.10;99.90
7844;DHT22;3967;48.702;9.326;2023-04-22T04:23:38;12.10;99.90
7844;DHT22;3967;48.702;9.326;2023-04-22T04:26:05;12.10;99.90
7844;DHT22;3967;48.702;9.326;2023-04-22T04:28:33;12.10;99.90
7844;DHT22;3967;48.702;9.326;2023-04-22T04:31:00;12.00;99.90
7844;DHT22;3967;48.702;9.326;2023-04-22T04:33:30;12.00;99.90
7844;DHT22;3967;48.702;9.326;2023-04-22T04:35:58;12.00;99.90
7844;DHT22;3967;48.702;9.326;2023-04-22T04:38:25;12.00;99.90
7844;DHT22;3967;48.702;9.326;2023-04-22T04:40:52;11.90;99.90
7844;DHT22;3967;48.702;9.326;2023-04-22T04:43:19;11.90;99.90
7844;DHT22;3967;48.702;9.326;2023-04-22T04:45:46;11.90;99.90
7844;DHT22;3967;48.702;9.326;2023-04-22T04:48:14;11.80;99.90
7844;DHT22;3967;48.702;9.326;2023-04-22T04:50:42;11.80;99.90
7844;DHT22;3967;48.702;9.326;2023-04-22T04:53:09;11.80;99.90
7844;DHT22;3967;48.702;9.326;2023-04-22T04:55:37;11.80;99.90
7844;DHT22;3967;48.702;9.326;2023-04-22T04:58:05;11.90;99.90
7844;DHT22;3967;48.702;9.326;2023-04-22T05:00:32;11.90;99.90
7844;DHT22;3967;48.702;9.326;2023-04-22T05:02:59;11.80;99.90
7844;DHT22;3967;48.702;9.326;2023-04-22T05:05:26;11.80;99.90
7844;DHT22;3967;48.702;9.326;2023-04-22T05:07:53;11.70;99.90
7844;DHT22;3967;48.702;9.326;2023-04-22T05:10:20;11.80;99.90
7844;DHT22;3967;48.702;9.326;2023-04-22T05:12:50;11.90;99.90
7844;DHT22;3967;48.702;9.326;2023-04-22T05:15:17;11.80;99.90
7844;DHT22;3967;48.702;9.326;2023-04-22T05:17:44;11.70;99.90
7844;DHT22;3967;48.702;9.326;2023-04-22T05:20:10;11.60;99.90
7844;DHT22;3967;48.702;9.326;2023-04-22T05:22:37;11.60;99.90
7844;DHT22;3967;48.702;9.326;2023-04-22T05:25:04;11.40;99.90
7844;DHT22;3967;48.702;9.326;2023-04-22T05:27:31;11.40;99.90
7844;DHT22;3967;48.702;9.326;2023-04-22T05:29:58;11.40;99.90
7844;DHT22;3967;48.702;9.326;2023-04-22T05:32:24;11.40;99.90
7844;DHT22;3967;48.702;9.326;2023-04-22T05:34:51;11.40;99.90
7844;DHT22;3967;48.702;9.326;2023-04-22T05:37:18;11.40;99.90
7844;DHT22;3967;48.702;9.326;2023-04-22T05:39:44;11.30;99.90
7844;DHT22;3967;48.702;9.326;2023-04-22T05:42:11;11.40;99.90
7844;DHT22;3967;48.702;9.326;2023-04-22T05:44:38;11.40;99.90
7844;DHT22;3967;48.702;9.326;2023-04-22T05:47:05;11.30;99.90
7844;DHT22;3967;48.702;9.326;2023-04-22T05:49:31;11.10;99.90
7844;DHT22;3967;48.702;9.326;2023-04-22T05:51:58;11.10;99.90
7844;DHT22;3967;48.702;9.326;2023-04-22T05:54:25;11.10;99.90
7844;DHT22;3967;48.702;9.326;2023-04-22T05:56:52;11.10;99.90
7844;DHT22;3967;48.702;9.326;2023-04-22T05:59:19;11.20;99.90
7844;DHT22;3967;48.702;9.326;2023-04-22T06:01:47;11.30;99.90
7844;DHT22;3967;48.702;9.326;2023-04-22T06:04:14;11.20;99.90
7844;DHT22;3967;48.702;9.326;2023-04-22T06:06:41;11.40;99.90
7844;DHT22;3967;48.702;9.326;2023-04-22T06:09:08;11.40;99.90
7844;DHT22;3967;48.702;9.326;2023-04-22T06:11:34;11.40;99.90
7844;DHT22;3967;48.702;9.326;2023-04-22T06:14:01;11.60;99.90
7844;DHT22;3967;48.702;9.326;2023-04-22T06:16:28;11.60;99.90
7844;DHT22;3967;48.702;9.326;2023-04-22T06:18:55;11.70;99.90
7844;DHT22;3967;48.702;9.326;2023-04-22T06:21:22;11.80;99.90
7844;DHT22;3967;48.702;9.326;2023-04-22T06:23:48;12.00;99.90
7844;DHT22;3967;48.702;9.326;2023-04-22T06:26:15;12.10;99.90
7844;DHT22;3967;48.702;9.326;2023-04-22T06:28:42;12.00;99.90
7844;DHT22;3967;48.702;9.326;2023-04-22T06:31:08;12.10;99.90
7844;DHT22;3967;48.702;9.326;2023-04-22T06:33:35;12.10;99.90
7844;DHT22;3967;48.702;9.326;2023-04-22T06:36:02;12.20;99.90
7844;DHT22;3967;48.702;9.326;2023-04-22T06:38:30;12.40;99.90
7844;DHT22;3967;48.702;9.326;2023-04-22T06:40:57;12.70;99.90
7844;DHT22;3967;48.702;9.326;2023-04-22T06:43:23;12.70;99.90
7844;DHT22;3967;48.702;9.326;2023-04-22T06:45:50;12.80;99.90
7844;DHT22;3967;48.702;9.326;2023-04-22T06:48:17;12.80;99.90
7844;DHT22;3967;48.702;9.326;2023-04-22T06:50:44;12.90;99.90
7844;DHT22;3967;48.702;9.326;2023-04-22T06:53:10;13.00;99.90
7844;DHT22;3967;48.702;9.326;2023-04-22T06:55:37;12.90;99.90
7844;DHT22;3967;48.702;9.326;2023-04-22T06:58:04;13.00;99.90
7844;DHT22;3967;48.702;9.326;2023-04-22T07:00:30;13.00;99.90
7844;DHT22;3967;48.702;9.326;2023-04-22T07:02:57;13.00;99.90
7844;DHT22;3967;48.702;9.326;2023-04-22T07:05:24;13.00;99.90
7844;DHT22;3967;48.702;9.326;2023-04-22T07:07:51;12.90;99.90
7844;DHT22;3967;48.702;9.326;2023-04-22T07:10:17;12.90;99.90
7844;DHT22;3967;48.702;9.326;2023-04-22T07:12:44;12.90;99.90
7844;DHT22;3967;48.702;9.326;2023-04-22T07:15:11;12.90;99.90
7844;DHT22;3967;48.702;9.326;2023-04-22T07:17:38;13.10;99.90
7844;DHT22;3967;48.702;9.326;2023-04-22T07:20:05;13.20;99.90
7844;DHT22;3967;48.702;9.326;2023-04-22T07:22:32;13.20;99.90
7844;DHT22;3967;48.702;9.326;2023-04-22T07:24:59;13.20;99.90
7844;DHT22;3967;48.702;9.326;2023-04-22T07:27:25;13.20;99.90
7844;DHT22;3967;48.702;9.326;2023-04-22T07:29:52;13.30;99.90
7844;DHT22;3967;48.702;9.326;2023-04-22T07:32:19;13.30;99.80
7844;DHT22;3967;48.702;9.326;2023-04-22T07:34:46;13.30;99.90
7844;DHT22;3967;48.702;9.326;2023-04-22T07:37:12;13.40;99.90
7844;DHT22;3967;48.702;9.326;2023-04-22T07:39:39;13.50;99.40
7844;DHT22;3967;48.702;9.326;2023-04-22T07:42:06;13.60;99.80
7844;DHT22;3967;48.702;9.326;2023-04-22T07:44:33;13.60;99.40
7844;DHT22;3967;48.702;9.326;2023-04-22T07:47:00;13.80;99.70
7844;DHT22;3967;48.702;9.326;2023-04-22T07:49:27;13.80;99.60
7844;DHT22;3967;48.702;9.326;2023-04-22T07:51:53;14.00;99.60
7844;DHT22;3967;48.702;9.326;2023-04-22T07:54:20;14.00;98.70
7844;DHT22;3967;48.702;9.326;2023-04-22T07:56:47;14.10;98.40
7844;DHT22;3967;48.702;9.326;2023-04-22T07:59:13;14.10;98.40
7844;DHT22;3967;48.702;9.326;2023-04-22T08:01:40;14.30;97.50
7844;DHT22;3967;48.702;9.326;2023-04-22T08:04:07;14.50;97.40
7844;DHT22;3967;48.702;9.326;2023-04-22T08:06:34;14.50;97.40
7844;DHT22;3967;48.702;9.326;2023-04-22T08:09:01;14.70;97.00
7844;DHT22;3967;48.702;9.326;2023-04-22T08:11:27;14.80;97.10
7844;DHT22;3967;48.702;9.326;2023-04-22T08:13:54;15.10;96.50
7844;DHT22;3967;48.702;9.326;2023-04-22T08:16:21;15.20;96.20
7844;DHT22;3967;48.702;9.326;2023-04-22T08:18:48;15.60;96.00
7844;DHT22;3967;48.702;9.326;2023-04-22T08:21:14;15.80;95.00
7844;DHT22;3967;48.702;9.326;2023-04-22T08:23:41;16.00;94.00
7844;DHT22;3967;48.702;9.326;2023-04-22T08:26:08;16.10;92.80
7844;DHT22;3967;48.702;9.326;2023-04-22T08:28:40;16.10;92.70
7844;DHT22;3967;48.702;9.326;2023-04-22T08:31:07;16.20;92.20
7844;DHT22;3967;48.702;9.326;2023-04-22T08:33:36;16.20;91.80
7844;DHT22;3967;48.702;9.326;2023-04-22T08:36:03;16.40;91.30
7844;DHT22;3967;48.702;9.326;2023-04-22T08:38:29;16.30;90.80
7844;DHT22;3967;48.702;9.326;2023-04-22T08:40:56;16.40;90.50
7844;DHT22;3967;48.702;9.326;2023-04-22T08:43:25;16.60;90.70
7844;DHT22;3967;48.702;9.326;2023-04-22T08:45:52;16.70;90.70
7844;DHT22;3967;48.702;9.326;2023-04-22T08:48:19;16.90;90.40
7844;DHT22;3967;48.702;9.326;2023-04-22T08:50:46;17.00;89.40
7844;DHT22;3967;48.702;9.326;2023-04-22T08:53:14;17.00;88.50
7844;DHT22;3967;48.702;9.326;2023-04-22T08:55:44;17.20;89.50
7844;DHT22;3967;48.702;9.326;2023-04-22T08:58:12;17.10;89.60
7844;DHT22;3967;48.702;9.326;2023-04-22T09:00:41;17.10;90.00
7844;DHT22;3967;48.702;9.326;2023-04-22T09:03:08;17.40;88.50
7844;DHT22;3967;48.702;9.326;2023-04-22T09:05:38;17.60;87.70
7844;DHT22;3967;48.702;9.326;2023-04-22T09:08:06;17.70;86.60
7844;DHT22;3967;48.702;9.326;2023-04-22T09:10:36;17.90;84.40
7844;DHT22;3967;48.702;9.326;2023-04-22T09:13:04;18.10;84.40
7844;DHT22;3967;48.702;9.326;2023-04-22T09:15:32;18.30;83.10
7844;DHT22;3967;48.702;9.326;2023-04-22T09:17:59;18.30;83.10
7844;DHT22;3967;48.702;9.326;2023-04-22T09:20:28;18.50;84.80
7844;DHT22;3967;48.702;9.326;2023-04-22T09:22:57;18.90;84.80
7844;DHT22;3967;48.702;9.326;2023-04-22T09:25:27;19.20;84.10
7844;DHT22;3967;48.702;9.326;2023-04-22T09:27:55;19.10;81.90
7844;DHT22;3967;48.702;9.326;2023-04-22T09:30:33;19.20;83.00
7844;DHT22;3967;48.702;9.326;2023-04-22T09:33:01;19.10;81.90
7844;DHT22;3967;48.702;9.326;2023-04-22T09:35:31;19.40;82.10
7844;DHT22;3967;48.702;9.326;2023-04-22T09:38:00;18.90;78.20
7844;DHT22;3967;48.702;9.326;2023-04-22T09:40:28;18.90;77.80
7844;DHT22;3967;48.702;9.326;2023-04-22T09:42:59;19.20;76.90
7844;DHT22;3967;48.702;9.326;2023-04-22T09:47:55;19.50;77.10
7844;DHT22;3967;48.702;9.326;2023-04-22T09:50:27;19.60;76.30
7844;DHT22;3967;48.702;9.326;2023-04-22T09:52:55;19.80;75.10
7844;DHT22;3967;48.702;9.326;2023-04-22T09:55:24;20.10;75.50
7844;DHT22;3967;48.702;9.326;2023-04-22T09:57:55;20.30;73.60
7844;DHT22;3967;48.702;9.326;2023-04-22T10:00:30;20.20;74.60
7844;DHT22;3967;48.702;9.326;2023-04-22T10:02:57;20.50;74.60
7844;DHT22;3967;48.702;9.326;2023-04-22T10:05:24;20.50;73.50
7844;DHT22;3967;48.702;9.326;2023-04-22T10:07:52;20.40;72.00
7844;DHT22;3967;48.702;9.326;2023-04-22T10:10:19;20.60;73.20
7844;DHT22;3967;48.702;9.326;2023-04-22T10:12:46;20.50;73.40
7844;DHT22;3967;48.702;9.326;2023-04-22T10:15:14;20.40;72.40
7844;DHT22;3967;48.702;9.326;2023-04-22T10:17:42;20.50;73.80
7844;DHT22;3967;48.702;9.326;2023-04-22T10:20:12;20.70;72.50
7844;DHT22;3967;48.702;9.326;2023-04-22T10:22:42;20.60;71.70
7844;DHT22;3967;48.702;9.326;2023-04-22T10:25:22;20.80;70.70
7844;DHT22;3967;48.702;9.326;2023-04-22T10:28:03;21.10;69.10
7844;DHT22;3967;48.702;9.326;2023-04-22T10:30:35;21.20;70.80
7844;DHT22;3967;48.702;9.326;2023-04-22T10:36:18;21.50;69.30
7844;DHT22;3967;48.702;9.326;2023-04-22T10:41:38;21.30;68.60
7844;DHT22;3967;48.702;9.326;2023-04-22T10:44:06;21.50;68.70
7844;DHT22;3967;48.702;9.326;2023-04-22T10:49:12;21.60;65.50
7844;DHT22;3967;48.702;9.326;2023-04-22T10:51:44;21.80;65.30
7844;DHT22;3967;48.702;9.326;2023-04-22T10:57:12;22.30;65.70
7844;DHT22;3967;48.702;9.326;2023-04-22T10:59:51;22.30;65.20
7844;DHT22;3967;48.702;9.326;2023-04-22T11:02:20;22.20;66.20
7844;DHT22;3967;48.702;9.326;2023-04-22T11:04:47;22.00;64.40
7844;DHT22;3967;48.702;9.326;2023-04-22T11:07:29;22.00;62.20
7844;DHT22;3967;48.702;9.326;2023-04-22T11:17:32;22.30;61.30
7844;DHT22;3967;48.702;9.326;2023-04-22T11:20:00;22.40;59.30
7844;DHT22;3967;48.702;9.326;2023-04-22T11:22:27;22.30;56.90
7844;DHT22;3967;48.702;9.326;2023-04-22T11:24:54;22.40;56.40
7844;DHT22;3967;48.702;9.326;2023-04-22T11:27:21;22.60;57.20
7844;DHT22;3967;48.702;9.326;2023-04-22T11:30:19;23.00;58.50
7844;DHT22;3967;48.702;9.326;2023-04-22T11:32:50;22.70;58.10
7844;DHT22;3967;48.702;9.326;2023-04-22T11:35:37;22.80;58.00
7844;DHT22;3967;48.702;9.326;2023-04-22T11:38:05;22.50;58.00
7844;DHT22;3967;48.702;9.326;2023-04-22T11:40:36;22.50;57.50
7844;DHT22;3967;48.702;9.326;2023-04-22T11:43:07;22.80;59.10
7844;DHT22;3967;48.702;9.326;2023-04-22T11:45:35;22.90;57.20
7844;DHT22;3967;48.702;9.326;2023-04-22T11:48:05;22.70;56.60
7844;DHT22;3967;48.702;9.326;2023-04-22T11:50:33;22.70;55.90
7844;DHT22;3967;48.702;9.326;2023-04-22T11:53:22;23.20;57.80
7844;DHT22;3967;48.702;9.326;2023-04-22T11:55:50;23.20;50.30
7844;DHT22;3967;48.702;9.326;2023-04-22T11:58:23;23.40;51.90
7844;DHT22;3967;48.702;9.326;2023-04-22T12:00:51;23.70;52.20
7844;DHT22;3967;48.702;9.326;2023-04-22T12:03:20;23.70;49.50
7844;DHT22;3967;48.702;9.326;2023-04-22T12:05:59;23.80;50.10
7844;DHT22;3967;48.702;9.326;2023-04-22T12:08:35;24.10;51.60
7844;DHT22;3967;48.702;9.326;2023-04-22T12:11:04;24.10;48.30
7844;DHT22;3967;48.702;9.326;2023-04-22T12:13:39;24.10;48.30
7844;DHT22;3967;48.702;9.326;2023-04-22T12:16:10;24.10;47.50
7844;DHT22;3967;48.702;9.326;2023-04-22T12:18:53;24.10;46.90
7844;DHT22;3967;48.702;9.326;2023-04-22T12:21:22;23.80;47.10
7844;DHT22;3967;48.702;9.326;2023-04-22T12:23:51;24.20;47.70
7844;DHT22;3967;48.702;9.326;2023-04-22T12:26:20;24.10;48.60
7844;DHT22;3967;48.702;9.326;2023-04-22T12:28:52;24.50;48.50
7844;DHT22;3967;48.702;9.326;2023-04-22T12:31:19;24.70;47.30
7844;DHT22;3967;48.702;9.326;2023-04-22T12:33:47;24.70;46.10
7844;DHT22;3967;48.702;9.326;2023-04-22T12:36:14;24.90;46.50
7844;DHT22;3967;48.702;9.326;2023-04-22T12:38:41;25.00;47.10
7844;DHT22;3967;48.702;9.326;2023-04-22T12:41:08;24.90;45.80
7844;DHT22;3967;48.702;9.326;2023-04-22T12:43:34;24.80;46.70
7844;DHT22;3967;48.702;9.326;2023-04-22T12:46:08;24.90;47.70
7844;DHT22;3967;48.702;9.326;2023-04-22T12:48:35;24.90;47.00
7844;DHT22;3967;48.702;9.326;2023-04-22T12:51:03;25.00;46.20
7844;DHT22;3967;48.702;9.326;2023-04-22T12:53:30;25.00;46.60
7844;DHT22;3967;48.702;9.326;2023-04-22T12:55:57;25.00;46.70
7844;DHT22;3967;48.702;9.326;2023-04-22T12:58:25;24.90;46.30
7844;DHT22;3967;48.702;9.326;2023-04-22T13:00:51;24.90;45.30
7844;DHT22;3967;48.702;9.326;2023-04-22T13:03:18;24.90;46.50
7844;DHT22;3967;48.702;9.326;2023-04-22T13:05:45;25.10;47.30
7844;DHT22;3967;48.702;9.326;2023-04-22T13:08:12;25.10;46.60
7844;DHT22;3967;48.702;9.326;2023-04-22T13:10:39;25.00;46.50
7844;DHT22;3967;48.702;9.326;2023-04-22T13:13:05;25.10;46.50
7844;DHT22;3967;48.702;9.326;2023-04-22T13:15:36;25.10;47.10
7844;DHT22;3967;48.702;9.326;2023-04-22T13:18:04;25.00;47.30
7844;DHT22;3967;48.702;9.326;2023-04-22T13:20:31;25.10;47.30
7844;DHT22;3967;48.702;9.326;2023-04-22T13:23:04;24.90;47.00
7844;DHT22;3967;48.702;9.326;2023-04-22T13:25:33;25.00;48.10
7844;DHT22;3967;48.702;9.326;2023-04-22T13:27:59;25.00;46.40
7844;DHT22;3967;48.702;9.326;2023-04-22T13:30:26;25.00;46.80
7844;DHT22;3967;48.702;9.326;2023-04-22T13:32:53;25.10;46.90
7844;DHT22;3967;48.702;9.326;2023-04-22T13:35:19;24.70;45.80
7844;DHT22;3967;48.702;9.326;2023-04-22T13:37:46;24.80;46.40
7844;DHT22;3967;48.702;9.326;2023-04-22T13:40:13;24.80;46.70
7844;DHT22;3967;48.702;9.326;2023-04-22T13:42:40;24.70;47.70
7844;DHT22;3967;48.702;9.326;2023-04-22T13:45:07;24.80;47.20
7844;DHT22;3967;48.702;9.326;2023-04-22T13:47:34;24.80;46.90
7844;DHT22;3967;48.702;9.326;2023-04-22T13:50:01;24.70;47.00
7844;DHT22;3967;48.702;9.326;2023-04-22T13:52:28;25.00;47.20
7844;DHT22;3967;48.702;9.326;2023-04-22T13:54:55;24.90;47.10
7844;DHT22;3967;48.702;9.326;2023-04-22T13:57:22;25.00;46.90
7844;DHT22;3967;48.702;9.326;2023-04-22T13:59:49;24.80;47.40
7844;DHT22;3967;48.702;9.326;2023-04-22T14:02:16;24.70;46.70
7844;DHT22;3967;48.702;9.326;2023-04-22T14:04:43;24.50;46.50
7844;DHT22;3967;48.702;9.326;2023-04-22T14:07:10;24.40;46.10
7844;DHT22;3967;48.702;9.326;2023-04-22T14:09:39;24.40;47.10
7844;DHT22;3967;48.702;9.326;2023-04-22T14:12:07;24.40;47.20
7844;DHT22;3967;48.702;9.326;2023-04-22T14:14:34;24.10;48.10
7844;DHT22;3967;48.702;9.326;2023-04-22T14:17:00;23.80;48.50
7844;DHT22;3967;48.702;9.326;2023-04-22T14:19:28;23.70;48.80
7844;DHT22;3967;48.702;9.326;2023-04-22T14:21:56;23.70;49.40
7844;DHT22;3967;48.702;9.326;2023-04-22T14:24:23;23.80;49.30
7844;DHT22;3967;48.702;9.326;2023-04-22T14:26:50;23.90;49.30
7844;DHT22;3967;48.702;9.326;2023-04-22T14:29:18;23.70;50.00
7844;DHT22;3967;48.702;9.326;2023-04-22T14:31:44;23.60;49.80
7844;DHT22;3967;48.702;9.326;2023-04-22T14:34:13;23.60;49.10
7844;DHT22;3967;48.702;9.326;2023-04-22T14:36:40;23.80;49.30
7844;DHT22;3967;48.702;9.326;2023-04-22T14:39:07;23.80;49.10
7844;DHT22;3967;48.702;9.326;2023-04-22T14:41:33;23.70;50.30
7844;DHT22;3967;48.702;9.326;2023-04-22T14:44:00;23.80;49.50
7844;DHT22;3967;48.702;9.326;2023-04-22T14:46:27;23.70;49.70
7844;DHT22;3967;48.702;9.326;2023-04-22T14:48:55;23.80;49.70
7844;DHT22;3967;48.702;9.326;2023-04-22T14:51:22;23.90;49.50
7844;DHT22;3967;48.702;9.326;2023-04-22T14:53:49;23.80;49.10
7844;DHT22;3967;48.702;9.326;2023-04-22T14:56:16;23.60;49.90
7844;DHT22;3967;48.702;9.326;2023-04-22T14:58:42;23.70;49.50
7844;DHT22;3967;48.702;9.326;2023-04-22T15:01:09;23.80;50.00
7844;DHT22;3967;48.702;9.326;2023-04-22T15:03:36;23.90;49.80
7844;DHT22;3967;48.702;9.326;2023-04-22T15:06:04;23.80;50.70
7844;DHT22;3967;48.702;9.326;2023-04-22T15:08:30;23.80;51.00
7844;DHT22;3967;48.702;9.326;2023-04-22T15:10:57;23.80;49.70
7844;DHT22;3967;48.702;9.326;2023-04-22T15:13:25;23.80;50.00
7844;DHT22;3967;48.702;9.326;2023-04-22T15:15:52;24.00;50.00
7844;DHT22;3967;48.702;9.326;2023-04-22T15:18:19;24.10;48.90
7844;DHT22;3967;48.702;9.326;2023-04-22T15:20:46;24.00;49.70
7844;DHT22;3967;48.702;9.326;2023-04-22T15:23:13;23.90;50.00
7844;DHT22;3967;48.702;9.326;2023-04-22T15:25:40;23.60;50.60
7844;DHT22;3967;48.702;9.326;2023-04-22T15:28:07;23.60;50.40
7844;DHT22;3967;48.702;9.326;2023-04-22T15:30:34;23.40;50.50
7844;DHT22;3967;48.702;9.326;2023-04-22T15:33:01;23.40;50.70
7844;DHT22;3967;48.702;9.326;2023-04-22T15:35:30;23.50;50.20
7844;DHT22;3967;48.702;9.326;2023-04-22T15:37:57;23.50;49.90
7844;DHT22;3967;48.702;9.326;2023-04-22T15:40:24;23.50;50.40
7844;DHT22;3967;48.702;9.326;2023-04-22T15:42:51;23.20;50.80
7844;DHT22;3967;48.702;9.326;2023-04-22T15:45:18;23.00;52.00
7844;DHT22;3967;48.702;9.326;2023-04-22T15:47:45;23.10;52.20
7844;DHT22;3967;48.702;9.326;2023-04-22T15:50:12;23.20;51.30
7844;DHT22;3967;48.702;9.326;2023-04-22T15:52:39;23.30;51.90
7844;DHT22;3967;48.702;9.326;2023-04-22T15:55:06;23.30;52.20
7844;DHT22;3967;48.702;9.326;2023-04-22T15:57:34;23.40;52.40
7844;DHT22;3967;48.702;9.326;2023-04-22T16:00:06;23.50;51.90
7844;DHT22;3967;48.702;9.326;2023-04-22T16:02:40;23.40;51.00
7844;DHT22;3967;48.702;9.326;2023-04-22T16:05:07;23.40;50.80
7844;DHT22;3967;48.702;9.326;2023-04-22T16:07:34;23.40;51.20
7844;DHT22;3967;48.702;9.326;2023-04-22T16:10:01;23.30;51.50
7844;DHT22;3967;48.702;9.326;2023-04-22T16:12:28;23.30;51.70
7844;DHT22;3967;48.702;9.326;2023-04-22T16:14:56;23.10;51.50
7844;DHT22;3967;48.702;9.326;2023-04-22T16:17:23;23.00;52.00
7844;DHT22;3967;48.702;9.326;2023-04-22T16:19:50;22.90;52.20
7844;DHT22;3967;48.702;9.326;2023-04-22T16:22:17;22.90;52.10
7844;DHT22;3967;48.702;9.326;2023-04-22T16:24:44;23.00;52.00
7844;DHT22;3967;48.702;9.326;2023-04-22T16:27:12;22.90;52.40